Cleveland, Ohio
Traffic Map
Current Weather Conditions
Cleveland, Ohio
Clear
Clear
70°
Feels Like: 70°
Wind Chill: 70° Ceiling: Unl
Heat Index: 70° Visibility: 10mi
Dew Point: 51° Wind: 13mph
Humidity: 51% Direction: 20° (NNE)
Pressure: 30.06in Gusts: 0mph
Raw Report DataKBKL 241953Z 02011KT 10SM CLR 21/11 A3006 RMK AO2 SLP178 T02110106 $
Traffic Incident Summary
Active as of:
Severity:
Category:
InformationThere was an issue retrieving the traffic information for this location. Please try a different location or try again shortly.
Advertisements
Track Severe Weather on mobile